Lucerne, California
Current Conditions -  °F | °C
As of 3:56 PM on Friday 24 Oct 2014 (Local Time) from KUKI Reporting Station
Few Clouds Few Clouds  
Wind Chill: 73°   Ceiling: Unl
Heat Index: 73°   Visibility: 10mi
Dew Point: 51°   Wind: 15mph
Humidity: 46%   Direction: 120°ESE
Pressure: 29.85"   Gusts: 21mph
Location:  39.09°N, 122.8°W
Report Text: KUKI 242256Z AUTO 12013G18KT 10SM FEW050 23/11 A2985 RMK AO2 SLP103 T02280106
Loading
Personal Weather Stations






























Interactive Weather Map
Tropical Storm Tracking
New forecast layout! Learn more

10-Day Weather Forecast

Advertisements
Track Severe Weather on mobile